ADDS METAR Data INFO
IDs: Format: Raw Decoded Include TAF

Data at: 2333 UTC 19 Oct 2017

KRWV 192315Z AUTO 13005KT 10SM CLR 26/15 A3006 RMK AO2 T02630153
KRWV 192255Z AUTO 13007KT 10SM SCT090 27/16 A3006 RMK AO2 T02710157
KRWV 192235Z AUTO 13007KT 10SM SCT090 27/16 A3006 RMK AO2 T02730156
KRWV 192215Z AUTO 14008KT 10SM CLR 28/16 A3006 RMK AO2 T02770159
KRWV 192155Z AUTO 14009KT 10SM CLR 28/16 A3006 RMK AO2 T02780155
KRWV 192135Z AUTO 15007KT 110V170 10SM SCT100 29/16 A3006 RMK AO2 T02870163
KRWV 192115Z AUTO 14006KT 10SM CLR 28/16 A3007 RMK AO2 T02810158
KRWV 192055Z AUTO 15007KT 10SM CLR 28/16 A3007 RMK AO2 T02820161
KRWV 192035Z AUTO 16008KT 10SM CLR 28/16 A3007 RMK AO2 T02830160
KRWV 192015Z AUTO 15007KT 10SM CLR 28/16 A3008 RMK AO2 T02810160
KRWV 191955Z AUTO 12006KT 10SM CLR 27/16 A3008 RMK AO2 T02750160
KRWV 191935Z AUTO 12005KT 10SM CLR 28/16 A3009 RMK AO2 T02770161
KRWV 191915Z AUTO 00000KT 10SM CLR 28/16 A3009 RMK AO2 T02770163
KRWV 191855Z AUTO 15003KT 10SM CLR 27/16 A3010 RMK AO2 T02720161
KRWV 191835Z AUTO 11005KT 10SM CLR 27/16 A3011 RMK AO2 T02720159
KRWV 191815Z AUTO 12005KT 7SM SCT040 27/16 A3013 RMK AO2 T02670162
KRWV 191755Z AUTO 00000KT 10SM SCT038 27/17 A3014 RMK AO2 T02660167 10273 20133
KRWV 191735Z AUTO 17005KT 10SM SCT034 26/17 A3015 RMK AO2 T02630170
KRWV 191715Z AUTO 14006KT 10SM BKN034 27/17 A3016 RMK AO2 T02660171
KRWV 191655Z AUTO 11005KT 10SM BKN032 25/17 A3016 RMK AO2 T02550174
KRWV 191635Z AUTO 13006KT 10SM SCT030 25/17 A3017 RMK AO2 T02520173
KRWV 191615Z AUTO 12006KT 10SM CLR 25/17 A3017 RMK AO2 T02510175
KRWV 191555Z AUTO 12005KT 10SM CLR 24/17 A3017 RMK AO2 T02430174
KRWV 191535Z AUTO 11004KT 5SM HZ CLR 23/17 A3017 RMK AO2 T02350175
KRWV 191515Z AUTO 11004KT 10SM SCT033 22/18 A3017 RMK AO2 T02190175
KRWV 191415Z AUTO 06003KT 3 1/2SM BR OVC031 17/16 A3016 RMK AO2 T01690157
KRWV 191355Z AUTO 06003KT 3SM BR BKN031 16/15 A3015 RMK AO2 T01620153
KRWV 191335Z AUTO 00000KT 2 1/2SM BR OVC031 16/15 A3015 RMK AO2 T01560149
KRWV 191315Z AUTO 00000KT 2 1/2SM BR SCT031 15/14 A3014 RMK AO2 T01470142
KRWV 191255Z AUTO 04003KT 2 1/2SM BR CLR 14/13 A3013 RMK AO2 T01400135
KRWV 191235Z AUTO 00000KT 3SM BR CLR 14/13 A3013 RMK AO2 T01360131
KRWV 191215Z AUTO 04003KT 4SM BR CLR 13/13 A3013 RMK AO2 T01330128
KRWV 191155Z AUTO 04003KT 4SM BR CLR 14/13 A3013 RMK AO2 T01350131 10161 20116
KRWV 191135Z AUTO 05003KT 7SM SCT028 12/11 A3013 RMK AO2 T01170112
KRWV 191115Z AUTO 00000KT 5SM BR CLR 12/12 A3012 RMK AO2 T01230118
KRWV 191055Z AUTO 00000KT 7SM CLR 12/12 A3012 RMK AO2 T01210116
KRWV 191035Z AUTO 00000KT 10SM SCT030 12/12 A3012 RMK AO2 T01250117
KRWV 191015Z AUTO 01003KT 7SM BKN030 13/12 A3012 RMK AO2 T01270122
KRWV 190955Z AUTO 34003KT 7SM BR SCT030 13/12 A3012 RMK AO2 T01260122
KRWV 190935Z AUTO 00000KT 3 1/2SM BR CLR 13/13 A3012 RMK AO2 T01330131
KRWV 190915Z AUTO 00000KT 10SM CLR 13/12 A3012 RMK AO2 T01330124
KRWV 190855Z AUTO 00000KT 7SM CLR 14/13 A3012 RMK AO2 T01360131
KRWV 190835Z AUTO 00000KT 10SM CLR 14/13 A3013 RMK AO2 T01410132
KRWV 190815Z AUTO 00000KT 10SM CLR 15/13 A3013 RMK AO2 T01460135
KRWV 190755Z AUTO 00000KT 10SM CLR 15/13 A3013 RMK AO2 T01460134
KRWV 190735Z AUTO 00000KT 10SM CLR 14/13 A3013 RMK AO2 T01440133
KRWV 190715Z AUTO 00000KT 10SM CLR 13/12 A3013 RMK AO2 T01350124
KRWV 190655Z AUTO 00000KT 10SM CLR 14/13 A3013 RMK AO2 T01370125
KRWV 190635Z AUTO 00000KT 10SM CLR 15/13 A3012 RMK AO2 T01470130
KRWV 190615Z AUTO 00000KT 10SM CLR 15/13 A3013 RMK AO2 T01530131
KRWV 190555Z AUTO 20004KT 10SM CLR 15/13 A3013 RMK AO2 T01510125 10216 20142
KRWV 190535Z AUTO 22003KT 10SM CLR 15/12 A3013 RMK AO2 T01480116
KRWV 190515Z AUTO 00000KT 10SM CLR 15/12 A3013 RMK AO2 T01490115
KRWV 190455Z AUTO 00000KT 10SM CLR 16/11 A3013 RMK AO2 T01570112
KRWV 190435Z AUTO 16004KT 10SM CLR 15/11 A3013 RMK AO2 T01520111
KRWV 190415Z AUTO 16005KT 10SM CLR 15/11 A3013 RMK AO2 T01530112
KRWV 190355Z AUTO 10004KT 10SM CLR 14/11 A3013 RMK AO2 T01450111
KRWV 190335Z AUTO 00000KT 10SM CLR 15/11 A3013 RMK AO2 T01530110
KRWV 190315Z AUTO 10003KT 10SM CLR 15/11 A3012 RMK AO2 T01550112
KRWV 190255Z AUTO 00000KT 10SM CLR 17/11 A3012 RMK AO2 T01690110
KRWV 190235Z AUTO 12003KT 10SM CLR 17/11 A3012 RMK AO2 T01680110
KRWV 190215Z AUTO 00000KT 10SM CLR 17/11 A3011 RMK AO2 T01680107
KRWV 190155Z AUTO 11003KT 10SM CLR 17/11 A3011 RMK AO2 T01740107
KRWV 190135Z AUTO 10003KT 10SM CLR 17/11 A3011 RMK AO2 T01700109
KRWV 190115Z AUTO 09003KT 10SM CLR 17/11 A3011 RMK AO2 T01700109
KRWV 190055Z AUTO 11003KT 10SM CLR 17/11 A3010 RMK AO2 T01710110
KRWV 190035Z AUTO 09003KT 10SM CLR 18/11 A3010 RMK AO2 T01810109
KRWV 190015Z AUTO 12003KT 10SM CLR 19/11 A3010 RMK AO2 T01930106
KRWV 182355Z AUTO 11003KT 10SM CLR 21/10 A3009 RMK AO2 T02110104 10275 20210 402750068
KRWV 182335Z AUTO 12004KT 10SM CLR 24/09 A3009 RMK AO2 LTG DSNT W T02370092
KRWV 182315Z AUTO 13005KT 10SM CLR 25/09 A3009 RMK AO2 T02510090
KRWV 182255Z AUTO 14006KT 10SM CLR 26/09 A3009 RMK AO2 T02570088
KRWV 182235Z AUTO 13007KT 10SM CLR 26/08 A3009 RMK AO2 T02620076
KRWV 182215Z AUTO 12009KT 10SM CLR 27/08 A3009 RMK AO2 T02650077
KRWV 182155Z AUTO 13006KT 10SM CLR 27/08 A3010 RMK AO2 T02670084
KRWV 182135Z AUTO 13008KT 10SM CLR 27/08 A3010 RMK AO2 T02680077
KRWV 182115Z AUTO 12003KT 10SM CLR 27/08 A3010 RMK AO2 T02720077
KRWV 182055Z AUTO 00000KT 10SM CLR 27/08 A3011 RMK AO2 T02680081
KRWV 182035Z AUTO 16006KT 10SM CLR 27/08 A3011 RMK AO2 T02710077
KRWV 182015Z AUTO 17004KT 10SM CLR 27/08 A3012 RMK AO2 T02660081
KRWV 181955Z AUTO 15004KT 10SM CLR 26/09 A3012 RMK AO2 T02630085
KRWV 181935Z AUTO 10005KT 10SM CLR 26/09 A3012 RMK AO2 T02630086
KRWV 181915Z AUTO 15004KT 10SM CLR 26/09 A3013 RMK AO2 T02610090
KRWV 181855Z AUTO 14006KT 10SM CLR 26/09 A3014 RMK AO2 T02580085
KRWV 181835Z AUTO 12003KT 10SM CLR 25/07 A3016 RMK AO2 T02510067
KRWV 181815Z AUTO 17004KT 10SM CLR 25/08 A3017 RMK AO2 T02460081
KRWV 181755Z AUTO 16006KT 10SM CLR 24/08 A3018 RMK AO2 T02450085 10249 20068
KRWV 181735Z AUTO 17005KT 10SM CLR 24/08 A3019 RMK AO2 T02400083
KRWV 181715Z AUTO 00000KT 10SM CLR 23/08 A3019 RMK AO2 T02340078
KRWV 181655Z AUTO 14004KT 10SM CLR 23/09 A3020 RMK AO2 T02300087
KRWV 181635Z AUTO 17005KT 10SM CLR 23/08 A3020 RMK AO2 T02310083
KRWV 181615Z AUTO 16006KT 10SM CLR 22/09 A3020 RMK AO2 T02170093
KRWV 181555Z AUTO 18005KT 10SM CLR 22/10 A3020 RMK AO2 T02160102
KRWV 181535Z AUTO 16006KT 10SM CLR 20/10 A3020 RMK AO2 T02010105
KRWV 181515Z AUTO 15005KT 10SM CLR 19/11 A3020 RMK AO2 T01870107
KRWV 181455Z AUTO 14004KT 10SM CLR 17/12 A3020 RMK AO2 T01710118
KRWV 181435Z AUTO 00000KT 10SM CLR 15/11 A3020 RMK AO2 T01520112
KRWV 181415Z AUTO 00000KT 10SM CLR 14/11 A3020 RMK AO2 T01380106
KRWV 181355Z AUTO 00000KT 10SM CLR 13/10 A3019 RMK AO2 T01280098
KRWV 181335Z AUTO 00000KT 10SM CLR 11/10 A3019 RMK AO2 T01110096
KRWV 181315Z AUTO 00000KT 10SM CLR 08/07 A3018 RMK AO2 T00830075
KRWV 181255Z AUTO 00000KT 7SM CLR 08/07 A3018 RMK AO2 T00760067
KRWV 181235Z AUTO 00000KT 10SM CLR 07/06 A3017 RMK AO2 T00730062
KRWV 181215Z AUTO 35003KT 10SM CLR 07/06 A3017 RMK AO2 T00720062
KRWV 181155Z AUTO 00000KT 10SM CLR 07/06 A3017 RMK AO2 T00700062 10104 20069
KRWV 181135Z AUTO 00000KT 10SM CLR 07/06 A3016 RMK AO2 T00720064